sensor_id;sensor_type;location;lat;lon;timestamp;P1;durP1;ratioP1;P2;durP2;ratioP2
58661;SDS011;44432;49.786;22.760;2022-11-23T00:00:38;87.60;;;40.20;;
58661;SDS011;44432;49.786;22.760;2022-11-23T00:03:29;100.50;;;45.90;;
58661;SDS011;44432;49.786;22.760;2022-11-23T00:06:02;99.00;;;46.00;;
58661;SDS011;44432;49.786;22.760;2022-11-23T00:08:32;103.30;;;44.60;;
58661;SDS011;44432;49.786;22.760;2022-11-23T00:11:04;103.90;;;47.80;;
58661;SDS011;44432;49.786;22.760;2022-11-23T00:13:34;94.30;;;43.70;;
58661;SDS011;44432;49.786;22.760;2022-11-23T00:16:07;120.70;;;47.40;;
58661;SDS011;44432;49.786;22.760;2022-11-23T00:18:41;86.60;;;41.70;;
58661;SDS011;44432;49.786;22.760;2022-11-23T00:21:13;96.90;;;42.60;;
58661;SDS011;44432;49.786;22.760;2022-11-23T00:26:15;84.70;;;40.30;;
58661;SDS011;44432;49.786;22.760;2022-11-23T00:28:46;124.00;;;50.40;;
58661;SDS011;44432;49.786;22.760;2022-11-23T00:31:18;127.70;;;49.50;;
58661;SDS011;44432;49.786;22.760;2022-11-23T00:33:49;106.60;;;46.20;;
58661;SDS011;44432;49.786;22.760;2022-11-23T00:36:21;116.70;;;48.50;;
58661;SDS011;44432;49.786;22.760;2022-11-23T00:38:54;111.30;;;43.10;;
58661;SDS011;44432;49.786;22.760;2022-11-23T00:41:26;98.90;;;39.20;;
58661;SDS011;44432;49.786;22.760;2022-11-23T00:43:57;101.60;;;39.60;;
58661;SDS011;44432;49.786;22.760;2022-11-23T00:46:27;129.70;;;44.90;;
58661;SDS011;44432;49.786;22.760;2022-11-23T00:48:58;209.80;;;62.00;;
58661;SDS011;44432;49.786;22.760;2022-11-23T00:51:30;95.50;;;39.00;;
58661;SDS011;44432;49.786;22.760;2022-11-23T00:54:01;82.10;;;34.70;;
58661;SDS011;44432;49.786;22.760;2022-11-23T00:56:33;81.60;;;36.60;;
58661;SDS011;44432;49.786;22.760;2022-11-23T00:59:04;94.30;;;39.90;;
58661;SDS011;44432;49.786;22.760;2022-11-23T01:01:35;115.50;;;42.60;;
58661;SDS011;44432;49.786;22.760;2022-11-23T01:04:06;89.20;;;35.80;;
58661;SDS011;44432;49.786;22.760;2022-11-23T01:06:38;70.20;;;30.00;;
58661;SDS011;44432;49.786;22.760;2022-11-23T01:09:10;45.80;;;24.40;;
58661;SDS011;44432;49.786;22.760;2022-11-23T01:11:43;45.50;;;23.30;;
58661;SDS011;44432;49.786;22.760;2022-11-23T01:14:13;42.50;;;21.40;;
58661;SDS011;44432;49.786;22.760;2022-11-23T01:16:44;49.20;;;23.10;;
58661;SDS011;44432;49.786;22.760;2022-11-23T01:19:16;66.40;;;25.30;;
58661;SDS011;44432;49.786;22.760;2022-11-23T01:21:49;45.60;;;21.80;;
58661;SDS011;44432;49.786;22.760;2022-11-23T01:24:20;47.30;;;20.20;;
58661;SDS011;44432;49.786;22.760;2022-11-23T01:26:51;43.50;;;21.50;;
58661;SDS011;44432;49.786;22.760;2022-11-23T01:29:22;46.30;;;23.40;;
58661;SDS011;44432;49.786;22.760;2022-11-23T01:31:53;40.90;;;21.80;;
58661;SDS011;44432;49.786;22.760;2022-11-23T01:34:24;45.80;;;21.30;;
58661;SDS011;44432;49.786;22.760;2022-11-23T01:36:54;46.30;;;22.30;;
58661;SDS011;44432;49.786;22.760;2022-11-23T01:39:25;40.70;;;21.40;;
58661;SDS011;44432;49.786;22.760;2022-11-23T01:41:56;43.10;;;20.90;;
58661;SDS011;44432;49.786;22.760;2022-11-23T01:44:28;40.20;;;21.10;;
58661;SDS011;44432;49.786;22.760;2022-11-23T01:47:00;43.50;;;21.40;;
58661;SDS011;44432;49.786;22.760;2022-11-23T01:49:32;39.60;;;20.00;;
58661;SDS011;44432;49.786;22.760;2022-11-23T01:52:08;41.60;;;19.40;;
58661;SDS011;44432;49.786;22.760;2022-11-23T01:54:42;36.10;;;18.10;;
58661;SDS011;44432;49.786;22.760;2022-11-23T01:57:17;40.20;;;20.80;;
58661;SDS011;44432;49.786;22.760;2022-11-23T01:59:50;36.40;;;19.50;;
58661;SDS011;44432;49.786;22.760;2022-11-23T02:02:23;38.10;;;20.00;;
58661;SDS011;44432;49.786;22.760;2022-11-23T02:04:57;38.00;;;19.40;;
58661;SDS011;44432;49.786;22.760;2022-11-23T02:07:30;34.90;;;19.50;;
58661;SDS011;44432;49.786;22.760;2022-11-23T02:10:02;40.80;;;20.50;;
58661;SDS011;44432;49.786;22.760;2022-11-23T02:12:34;38.10;;;17.20;;
58661;SDS011;44432;49.786;22.760;2022-11-23T02:15:05;39.40;;;18.80;;
58661;SDS011;44432;49.786;22.760;2022-11-23T02:17:36;35.80;;;18.60;;
58661;SDS011;44432;49.786;22.760;2022-11-23T02:20:08;32.60;;;17.20;;
58661;SDS011;44432;49.786;22.760;2022-11-23T02:22:42;34.50;;;18.10;;
58661;SDS011;44432;49.786;22.760;2022-11-23T02:25:26;31.60;;;17.20;;
58661;SDS011;44432;49.786;22.760;2022-11-23T02:28:02;33.90;;;17.40;;
58661;SDS011;44432;49.786;22.760;2022-11-23T02:30:34;36.20;;;16.80;;
58661;SDS011;44432;49.786;22.760;2022-11-23T02:33:07;32.00;;;17.00;;
58661;SDS011;44432;49.786;22.760;2022-11-23T02:35:46;32.10;;;17.60;;
58661;SDS011;44432;49.786;22.760;2022-11-23T02:38:18;36.70;;;18.20;;
58661;SDS011;44432;49.786;22.760;2022-11-23T02:40:50;43.30;;;22.70;;
58661;SDS011;44432;49.786;22.760;2022-11-23T02:43:21;41.70;;;22.10;;
58661;SDS011;44432;49.786;22.760;2022-11-23T02:45:53;46.80;;;24.10;;
58661;SDS011;44432;49.786;22.760;2022-11-23T02:48:27;43.00;;;24.50;;
58661;SDS011;44432;49.786;22.760;2022-11-23T02:50:58;43.00;;;23.60;;
58661;SDS011;44432;49.786;22.760;2022-11-23T02:53:28;47.80;;;23.90;;
58661;SDS011;44432;49.786;22.760;2022-11-23T02:55:59;46.40;;;23.50;;
58661;SDS011;44432;49.786;22.760;2022-11-23T02:58:29;40.40;;;21.00;;
58661;SDS011;44432;49.786;22.760;2022-11-23T03:01:00;37.10;;;19.90;;
58661;SDS011;44432;49.786;22.760;2022-11-23T03:03:30;44.00;;;20.30;;
58661;SDS011;44432;49.786;22.760;2022-11-23T03:06:01;36.80;;;19.30;;
58661;SDS011;44432;49.786;22.760;2022-11-23T03:08:32;39.80;;;22.60;;
58661;SDS011;44432;49.786;22.760;2022-11-23T03:11:02;42.30;;;23.30;;
58661;SDS011;44432;49.786;22.760;2022-11-23T03:13:33;47.30;;;23.20;;
58661;SDS011;44432;49.786;22.760;2022-11-23T03:16:04;41.20;;;22.20;;
58661;SDS011;44432;49.786;22.760;2022-11-23T03:18:35;41.60;;;21.10;;
58661;SDS011;44432;49.786;22.760;2022-11-23T03:21:06;38.10;;;19.30;;
58661;SDS011;44432;49.786;22.760;2022-11-23T03:23:36;41.50;;;18.70;;
58661;SDS011;44432;49.786;22.760;2022-11-23T03:26:07;41.40;;;19.70;;
58661;SDS011;44432;49.786;22.760;2022-11-23T03:28:37;41.40;;;20.10;;
58661;SDS011;44432;49.786;22.760;2022-11-23T03:31:08;44.70;;;19.60;;
58661;SDS011;44432;49.786;22.760;2022-11-23T03:33:39;44.00;;;21.60;;
58661;SDS011;44432;49.786;22.760;2022-11-23T03:36:09;40.00;;;19.90;;
58661;SDS011;44432;49.786;22.760;2022-11-23T03:38:40;40.40;;;19.80;;
58661;SDS011;44432;49.786;22.760;2022-11-23T03:41:11;41.40;;;18.80;;
58661;SDS011;44432;49.786;22.760;2022-11-23T03:43:41;46.20;;;21.60;;
58661;SDS011;44432;49.786;22.760;2022-11-23T03:46:12;49.80;;;21.40;;
58661;SDS011;44432;49.786;22.760;2022-11-23T03:48:42;43.60;;;22.50;;
58661;SDS011;44432;49.786;22.760;2022-11-23T03:51:13;45.70;;;22.30;;
58661;SDS011;44432;49.786;22.760;2022-11-23T03:53:44;40.20;;;20.30;;
58661;SDS011;44432;49.786;22.760;2022-11-23T03:56:14;44.40;;;21.30;;
58661;SDS011;44432;49.786;22.760;2022-11-23T03:58:45;47.20;;;21.70;;
58661;SDS011;44432;49.786;22.760;2022-11-23T04:01:17;48.40;;;23.80;;
58661;SDS011;44432;49.786;22.760;2022-11-23T04:03:47;43.70;;;21.90;;
58661;SDS011;44432;49.786;22.760;2022-11-23T04:06:18;41.10;;;21.60;;
58661;SDS011;44432;49.786;22.760;2022-11-23T04:08:48;37.90;;;21.60;;
58661;SDS011;44432;49.786;22.760;2022-11-23T04:11:19;37.30;;;21.80;;
58661;SDS011;44432;49.786;22.760;2022-11-23T04:13:50;36.70;;;20.10;;
58661;SDS011;44432;49.786;22.760;2022-11-23T04:16:20;38.40;;;21.20;;
58661;SDS011;44432;49.786;22.760;2022-11-23T04:18:51;39.90;;;22.00;;
58661;SDS011;44432;49.786;22.760;2022-11-23T04:21:21;35.40;;;21.30;;
58661;SDS011;44432;49.786;22.760;2022-11-23T04:23:52;39.00;;;20.00;;
58661;SDS011;44432;49.786;22.760;2022-11-23T04:26:22;36.60;;;21.40;;
58661;SDS011;44432;49.786;22.760;2022-11-23T04:28:53;42.10;;;21.30;;
58661;SDS011;44432;49.786;22.760;2022-11-23T04:31:24;32.60;;;20.40;;
58661;SDS011;44432;49.786;22.760;2022-11-23T04:33:54;33.10;;;19.90;;
58661;SDS011;44432;49.786;22.760;2022-11-23T04:36:25;36.60;;;22.00;;
58661;SDS011;44432;49.786;22.760;2022-11-23T04:38:56;37.30;;;21.10;;
58661;SDS011;44432;49.786;22.760;2022-11-23T04:41:27;37.70;;;21.20;;
58661;SDS011;44432;49.786;22.760;2022-11-23T04:43:57;35.40;;;20.30;;
58661;SDS011;44432;49.786;22.760;2022-11-23T04:46:28;44.10;;;22.30;;
58661;SDS011;44432;49.786;22.760;2022-11-23T04:48:59;37.40;;;21.10;;
58661;SDS011;44432;49.786;22.760;2022-11-23T04:51:29;34.90;;;22.00;;
58661;SDS011;44432;49.786;22.760;2022-11-23T04:54:00;40.10;;;21.20;;
58661;SDS011;44432;49.786;22.760;2022-11-23T04:56:31;36.00;;;21.10;;
58661;SDS011;44432;49.786;22.760;2022-11-23T04:59:01;45.00;;;22.90;;
58661;SDS011;44432;49.786;22.760;2022-11-23T05:01:32;43.00;;;22.90;;
58661;SDS011;44432;49.786;22.760;2022-11-23T05:04:02;38.50;;;21.50;;
58661;SDS011;44432;49.786;22.760;2022-11-23T05:06:33;40.70;;;23.80;;
58661;SDS011;44432;49.786;22.760;2022-11-23T05:09:04;37.60;;;22.20;;
58661;SDS011;44432;49.786;22.760;2022-11-23T05:11:35;43.10;;;21.40;;
58661;SDS011;44432;49.786;22.760;2022-11-23T05:14:05;35.80;;;22.50;;
58661;SDS011;44432;49.786;22.760;2022-11-23T05:16:36;36.40;;;20.60;;
58661;SDS011;44432;49.786;22.760;2022-11-23T05:19:06;40.20;;;20.20;;
58661;SDS011;44432;49.786;22.760;2022-11-23T05:21:37;43.10;;;21.30;;
58661;SDS011;44432;49.786;22.760;2022-11-23T05:24:08;41.60;;;22.50;;
58661;SDS011;44432;49.786;22.760;2022-11-23T05:26:38;37.40;;;20.50;;
58661;SDS011;44432;49.786;22.760;2022-11-23T05:29:09;49.10;;;24.20;;
58661;SDS011;44432;49.786;22.760;2022-11-23T05:31:40;49.30;;;23.70;;
58661;SDS011;44432;49.786;22.760;2022-11-23T05:34:10;48.10;;;22.30;;
58661;SDS011;44432;49.786;22.760;2022-11-23T05:36:41;42.90;;;20.70;;
58661;SDS011;44432;49.786;22.760;2022-11-23T05:39:12;39.80;;;20.40;;
58661;SDS011;44432;49.786;22.760;2022-11-23T05:41:42;40.50;;;20.20;;
58661;SDS011;44432;49.786;22.760;2022-11-23T05:44:13;42.90;;;20.30;;
58661;SDS011;44432;49.786;22.760;2022-11-23T05:46:43;43.30;;;21.50;;
58661;SDS011;44432;49.786;22.760;2022-11-23T05:49:14;38.30;;;19.90;;
58661;SDS011;44432;49.786;22.760;2022-11-23T05:51:45;44.60;;;19.90;;
58661;SDS011;44432;49.786;22.760;2022-11-23T05:54:15;44.60;;;20.00;;
58661;SDS011;44432;49.786;22.760;2022-11-23T05:56:46;47.30;;;21.10;;
58661;SDS011;44432;49.786;22.760;2022-11-23T05:59:16;33.50;;;17.70;;
58661;SDS011;44432;49.786;22.760;2022-11-23T06:01:47;41.40;;;21.00;;
58661;SDS011;44432;49.786;22.760;2022-11-23T06:04:18;38.10;;;18.70;;
58661;SDS011;44432;49.786;22.760;2022-11-23T06:06:48;34.70;;;17.90;;
58661;SDS011;44432;49.786;22.760;2022-11-23T06:09:21;34.30;;;18.40;;
58661;SDS011;44432;49.786;22.760;2022-11-23T06:11:52;37.60;;;19.50;;
58661;SDS011;44432;49.786;22.760;2022-11-23T06:14:22;36.60;;;18.80;;
58661;SDS011;44432;49.786;22.760;2022-11-23T06:16:53;36.40;;;19.70;;
58661;SDS011;44432;49.786;22.760;2022-11-23T06:19:23;39.60;;;21.50;;
58661;SDS011;44432;49.786;22.760;2022-11-23T06:21:56;43.00;;;21.00;;
58661;SDS011;44432;49.786;22.760;2022-11-23T06:24:27;34.30;;;19.00;;
58661;SDS011;44432;49.786;22.760;2022-11-23T06:26:58;34.10;;;18.20;;
58661;SDS011;44432;49.786;22.760;2022-11-23T06:29:28;29.80;;;17.20;;
58661;SDS011;44432;49.786;22.760;2022-11-23T06:31:59;35.60;;;19.20;;
58661;SDS011;44432;49.786;22.760;2022-11-23T06:34:29;31.00;;;18.10;;
58661;SDS011;44432;49.786;22.760;2022-11-23T06:37:00;35.00;;;20.30;;
58661;SDS011;44432;49.786;22.760;2022-11-23T06:39:31;34.50;;;18.80;;
58661;SDS011;44432;49.786;22.760;2022-11-23T06:42:02;36.90;;;20.10;;
58661;SDS011;44432;49.786;22.760;2022-11-23T06:44:33;39.80;;;22.20;;
58661;SDS011;44432;49.786;22.760;2022-11-23T06:47:03;44.40;;;23.00;;
58661;SDS011;44432;49.786;22.760;2022-11-23T06:49:34;41.90;;;22.90;;
58661;SDS011;44432;49.786;22.760;2022-11-23T06:52:05;40.80;;;22.90;;
58661;SDS011;44432;49.786;22.760;2022-11-23T06:54:36;36.60;;;20.50;;
58661;SDS011;44432;49.786;22.760;2022-11-23T06:57:07;48.50;;;22.20;;
58661;SDS011;44432;49.786;22.760;2022-11-23T06:59:38;37.60;;;21.70;;
58661;SDS011;44432;49.786;22.760;2022-11-23T07:02:09;41.40;;;22.80;;
58661;SDS011;44432;49.786;22.760;2022-11-23T07:04:39;46.20;;;24.50;;
58661;SDS011;44432;49.786;22.760;2022-11-23T07:07:10;40.80;;;21.00;;
58661;SDS011;44432;49.786;22.760;2022-11-23T07:09:41;38.60;;;20.50;;
58661;SDS011;44432;49.786;22.760;2022-11-23T07:12:11;32.10;;;16.90;;
58661;SDS011;44432;49.786;22.760;2022-11-23T07:14:42;34.90;;;18.60;;
58661;SDS011;44432;49.786;22.760;2022-11-23T07:17:13;29.20;;;16.20;;
58661;SDS011;44432;49.786;22.760;2022-11-23T07:19:43;33.00;;;17.90;;
58661;SDS011;44432;49.786;22.760;2022-11-23T07:22:14;32.40;;;17.10;;
58661;SDS011;44432;49.786;22.760;2022-11-23T07:24:45;36.50;;;17.30;;
58661;SDS011;44432;49.786;22.760;2022-11-23T07:27:16;32.50;;;18.00;;
58661;SDS011;44432;49.786;22.760;2022-11-23T07:29:47;31.50;;;16.90;;
58661;SDS011;44432;49.786;22.760;2022-11-23T07:32:18;33.60;;;18.50;;
58661;SDS011;44432;49.786;22.760;2022-11-23T07:34:48;36.10;;;20.90;;
58661;SDS011;44432;49.786;22.760;2022-11-23T07:37:19;36.50;;;19.80;;
58661;SDS011;44432;49.786;22.760;2022-11-23T07:39:50;35.00;;;19.70;;
58661;SDS011;44432;49.786;22.760;2022-11-23T07:42:20;36.40;;;20.00;;
58661;SDS011;44432;49.786;22.760;2022-11-23T07:44:51;35.80;;;20.70;;
58661;SDS011;44432;49.786;22.760;2022-11-23T07:47:21;35.70;;;19.30;;
58661;SDS011;44432;49.786;22.760;2022-11-23T07:49:52;37.20;;;18.20;;
58661;SDS011;44432;49.786;22.760;2022-11-23T07:52:23;35.50;;;18.90;;
58661;SDS011;44432;49.786;22.760;2022-11-23T07:54:53;33.30;;;19.30;;
58661;SDS011;44432;49.786;22.760;2022-11-23T07:57:24;39.00;;;24.40;;
58661;SDS011;44432;49.786;22.760;2022-11-23T07:59:55;31.40;;;18.70;;
58661;SDS011;44432;49.786;22.760;2022-11-23T08:02:25;32.40;;;19.50;;
58661;SDS011;44432;49.786;22.760;2022-11-23T08:04:56;32.20;;;18.70;;
58661;SDS011;44432;49.786;22.760;2022-11-23T08:07:26;31.60;;;19.00;;
58661;SDS011;44432;49.786;22.760;2022-11-23T08:09:57;36.40;;;21.20;;
58661;SDS011;44432;49.786;22.760;2022-11-23T08:12:28;45.90;;;25.70;;
58661;SDS011;44432;49.786;22.760;2022-11-23T08:14:59;41.20;;;23.90;;
58661;SDS011;44432;49.786;22.760;2022-11-23T08:17:29;38.30;;;22.40;;
58661;SDS011;44432;49.786;22.760;2022-11-23T08:20:00;41.40;;;23.50;;
58661;SDS011;44432;49.786;22.760;2022-11-23T08:22:31;38.00;;;20.70;;
58661;SDS011;44432;49.786;22.760;2022-11-23T08:25:02;44.10;;;24.80;;
58661;SDS011;44432;49.786;22.760;2022-11-23T08:27:33;49.50;;;27.90;;
58661;SDS011;44432;49.786;22.760;2022-11-23T08:30:05;52.60;;;30.10;;
58661;SDS011;44432;49.786;22.760;2022-11-23T08:32:36;50.90;;;28.70;;
58661;SDS011;44432;49.786;22.760;2022-11-23T08:35:08;43.50;;;26.30;;
58661;SDS011;44432;49.786;22.760;2022-11-23T08:37:39;45.20;;;25.80;;
58661;SDS011;44432;49.786;22.760;2022-11-23T08:40:11;36.50;;;22.40;;
58661;SDS011;44432;49.786;22.760;2022-11-23T08:42:42;37.90;;;21.30;;
58661;SDS011;44432;49.786;22.760;2022-11-23T08:45:14;35.30;;;22.10;;
58661;SDS011;44432;49.786;22.760;2022-11-23T08:47:45;34.30;;;21.10;;
58661;SDS011;44432;49.786;22.760;2022-11-23T08:50:15;38.60;;;21.50;;
58661;SDS011;44432;49.786;22.760;2022-11-23T08:52:49;37.20;;;21.40;;
58661;SDS011;44432;49.786;22.760;2022-11-23T08:55:24;44.60;;;26.20;;
58661;SDS011;44432;49.786;22.760;2022-11-23T08:57:56;43.90;;;28.20;;
58661;SDS011;44432;49.786;22.760;2022-11-23T09:00:27;43.00;;;27.20;;
58661;SDS011;44432;49.786;22.760;2022-11-23T09:02:59;37.50;;;21.60;;
58661;SDS011;44432;49.786;22.760;2022-11-23T09:05:30;39.40;;;23.60;;
58661;SDS011;44432;49.786;22.760;2022-11-23T09:08:01;39.10;;;24.60;;
58661;SDS011;44432;49.786;22.760;2022-11-23T09:10:32;42.50;;;24.80;;
58661;SDS011;44432;49.786;22.760;2022-11-23T09:13:02;38.60;;;23.30;;
58661;SDS011;44432;49.786;22.760;2022-11-23T09:15:33;42.30;;;24.60;;
58661;SDS011;44432;49.786;22.760;2022-11-23T09:18:04;39.10;;;23.30;;
58661;SDS011;44432;49.786;22.760;2022-11-23T09:20:34;47.00;;;26.20;;
58661;SDS011;44432;49.786;22.760;2022-11-23T09:23:07;47.60;;;26.10;;
58661;SDS011;44432;49.786;22.760;2022-11-23T09:25:38;41.60;;;24.50;;
58661;SDS011;44432;49.786;22.760;2022-11-23T09:28:09;42.90;;;22.80;;
58661;SDS011;44432;49.786;22.760;2022-11-23T09:30:41;46.60;;;27.00;;
58661;SDS011;44432;49.786;22.760;2022-11-23T09:33:12;42.60;;;25.50;;
58661;SDS011;44432;49.786;22.760;2022-11-23T09:35:43;48.20;;;26.20;;
58661;SDS011;44432;49.786;22.760;2022-11-23T09:38:13;41.50;;;23.70;;
58661;SDS011;44432;49.786;22.760;2022-11-23T09:40:44;37.10;;;21.00;;
58661;SDS011;44432;49.786;22.760;2022-11-23T09:45:56;50.10;;;28.00;;
58661;SDS011;44432;49.786;22.760;2022-11-23T09:48:39;51.20;;;26.40;;
58661;SDS011;44432;49.786;22.760;2022-11-23T09:51:20;38.90;;;25.00;;
58661;SDS011;44432;49.786;22.760;2022-11-23T09:53:52;37.10;;;22.70;;
58661;SDS011;44432;49.786;22.760;2022-11-23T09:56:25;33.20;;;20.60;;
58661;SDS011;44432;49.786;22.760;2022-11-23T09:58:59;35.40;;;21.90;;
58661;SDS011;44432;49.786;22.760;2022-11-23T10:01:33;40.50;;;22.60;;
58661;SDS011;44432;49.786;22.760;2022-11-23T10:04:05;39.90;;;26.70;;
58661;SDS011;44432;49.786;22.760;2022-11-23T10:06:41;39.00;;;25.70;;
58661;SDS011;44432;49.786;22.760;2022-11-23T10:09:19;39.00;;;22.90;;
58661;SDS011;44432;49.786;22.760;2022-11-23T10:12:03;43.40;;;23.50;;
58661;SDS011;44432;49.786;22.760;2022-11-23T10:14:48;41.90;;;25.00;;
58661;SDS011;44432;49.786;22.760;2022-11-23T10:17:30;44.30;;;26.00;;
58661;SDS011;44432;49.786;22.760;2022-11-23T10:20:20;40.10;;;25.40;;
58661;SDS011;44432;49.786;22.760;2022-11-23T10:23:07;39.00;;;22.50;;
58661;SDS011;44432;49.786;22.760;2022-11-23T10:25:49;68.20;;;38.10;;
58661;SDS011;44432;49.786;22.760;2022-11-23T10:28:21;39.20;;;25.20;;
58661;SDS011;44432;49.786;22.760;2022-11-23T10:30:53;39.80;;;24.80;;
58661;SDS011;44432;49.786;22.760;2022-11-23T10:33:33;43.80;;;25.20;;
58661;SDS011;44432;49.786;22.760;2022-11-23T10:36:09;37.10;;;20.90;;
58661;SDS011;44432;49.786;22.760;2022-11-23T10:38:41;42.00;;;22.90;;
58661;SDS011;44432;49.786;22.760;2022-11-23T10:41:13;36.90;;;21.50;;
58661;SDS011;44432;49.786;22.760;2022-11-23T10:43:46;42.30;;;24.80;;
58661;SDS011;44432;49.786;22.760;2022-11-23T10:46:27;39.70;;;21.30;;
58661;SDS011;44432;49.786;22.760;2022-11-23T10:49:09;33.90;;;20.90;;
58661;SDS011;44432;49.786;22.760;2022-11-23T10:51:51;30.40;;;19.90;;
58661;SDS011;44432;49.786;22.760;2022-11-23T10:54:25;29.90;;;16.50;;
58661;SDS011;44432;49.786;22.760;2022-11-23T10:57:00;22.10;;;14.30;;
58661;SDS011;44432;49.786;22.760;2022-11-23T10:59:55;22.50;;;14.10;;
58661;SDS011;44432;49.786;22.760;2022-11-23T11:02:27;29.20;;;15.60;;
58661;SDS011;44432;49.786;22.760;2022-11-23T11:05:20;26.30;;;14.20;;
58661;SDS011;44432;49.786;22.760;2022-11-23T11:07:55;24.50;;;14.60;;
58661;SDS011;44432;49.786;22.760;2022-11-23T11:10:32;28.90;;;16.30;;
58661;SDS011;44432;49.786;22.760;2022-11-23T11:16:04;23.40;;;15.00;;
58661;SDS011;44432;49.786;22.760;2022-11-23T11:18:46;26.00;;;14.30;;
58661;SDS011;44432;49.786;22.760;2022-11-23T11:21:18;22.80;;;13.70;;
58661;SDS011;44432;49.786;22.760;2022-11-23T11:23:52;22.20;;;13.90;;
58661;SDS011;44432;49.786;22.760;2022-11-23T11:26:27;25.20;;;14.10;;
58661;SDS011;44432;49.786;22.760;2022-11-23T11:29:00;22.80;;;13.50;;
58661;SDS011;44432;49.786;22.760;2022-11-23T11:34:24;24.60;;;15.60;;
58661;SDS011;44432;49.786;22.760;2022-11-23T11:36:59;26.30;;;15.10;;
58661;SDS011;44432;49.786;22.760;2022-11-23T11:39:36;25.00;;;14.60;;
58661;SDS011;44432;49.786;22.760;2022-11-23T11:42:15;22.70;;;13.70;;
58661;SDS011;44432;49.786;22.760;2022-11-23T11:44:48;23.60;;;13.10;;
58661;SDS011;44432;49.786;22.760;2022-11-23T11:47:24;22.10;;;13.50;;
58661;SDS011;44432;49.786;22.760;2022-11-23T11:50:00;23.40;;;15.80;;
58661;SDS011;44432;49.786;22.760;2022-11-23T11:52:43;23.90;;;13.70;;
58661;SDS011;44432;49.786;22.760;2022-11-23T11:55:17;30.50;;;13.70;;
58661;SDS011;44432;49.786;22.760;2022-11-23T11:57:55;27.90;;;14.50;;
58661;SDS011;44432;49.786;22.760;2022-11-23T12:00:35;22.10;;;15.40;;
58661;SDS011;44432;49.786;22.760;2022-11-23T12:03:11;21.90;;;13.70;;
58661;SDS011;44432;49.786;22.760;2022-11-23T12:05:48;25.40;;;16.20;;
58661;SDS011;44432;49.786;22.760;2022-11-23T12:08:22;30.70;;;17.30;;
58661;SDS011;44432;49.786;22.760;2022-11-23T12:11:01;24.70;;;14.20;;
58661;SDS011;44432;49.786;22.760;2022-11-23T12:13:33;34.90;;;17.80;;
58661;SDS011;44432;49.786;22.760;2022-11-23T12:16:09;25.30;;;15.40;;
58661;SDS011;44432;49.786;22.760;2022-11-23T12:18:59;23.70;;;14.00;;
58661;SDS011;44432;49.786;22.760;2022-11-23T12:21:47;23.40;;;14.30;;
58661;SDS011;44432;49.786;22.760;2022-11-23T12:24:30;22.20;;;13.60;;
58661;SDS011;44432;49.786;22.760;2022-11-23T12:27:17;22.30;;;13.50;;
58661;SDS011;44432;49.786;22.760;2022-11-23T12:30:00;30.40;;;15.50;;
58661;SDS011;44432;49.786;22.760;2022-11-23T12:32:46;26.50;;;16.10;;
58661;SDS011;44432;49.786;22.760;2022-11-23T12:38:20;31.30;;;17.40;;
58661;SDS011;44432;49.786;22.760;2022-11-23T12:41:22;23.20;;;15.50;;
58661;SDS011;44432;49.786;22.760;2022-11-23T12:44:00;28.20;;;18.50;;
58661;SDS011;44432;49.786;22.760;2022-11-23T12:46:43;30.30;;;16.60;;
58661;SDS011;44432;49.786;22.760;2022-11-23T12:49:26;25.20;;;16.30;;
58661;SDS011;44432;49.786;22.760;2022-11-23T12:52:10;26.90;;;16.90;;
58661;SDS011;44432;49.786;22.760;2022-11-23T12:54:55;35.20;;;20.10;;
58661;SDS011;44432;49.786;22.760;2022-11-23T12:57:36;26.60;;;17.80;;
58661;SDS011;44432;49.786;22.760;2022-11-23T13:00:13;26.10;;;15.90;;
58661;SDS011;44432;49.786;22.760;2022-11-23T13:06:08;31.10;;;17.10;;
58661;SDS011;44432;49.786;22.760;2022-11-23T13:09:18;33.40;;;16.80;;
58661;SDS011;44432;49.786;22.760;2022-11-23T13:12:05;28.50;;;16.50;;
58661;SDS011;44432;49.786;22.760;2022-11-23T13:14:45;28.50;;;17.40;;
58661;SDS011;44432;49.786;22.760;2022-11-23T13:17:26;26.90;;;16.30;;
58661;SDS011;44432;49.786;22.760;2022-11-23T13:20:18;25.00;;;16.50;;
58661;SDS011;44432;49.786;22.760;2022-11-23T13:23:06;30.80;;;17.80;;
58661;SDS011;44432;49.786;22.760;2022-11-23T13:25:37;34.10;;;19.90;;
58661;SDS011;44432;49.786;22.760;2022-11-23T13:33:48;26.90;;;17.70;;
58661;SDS011;44432;49.786;22.760;2022-11-23T13:36:38;59.50;;;25.90;;
58661;SDS011;44432;49.786;22.760;2022-11-23T13:42:23;34.60;;;22.00;;
58661;SDS011;44432;49.786;22.760;2022-11-23T13:45:22;31.70;;;20.90;;
58661;SDS011;44432;49.786;22.760;2022-11-23T13:48:18;25.90;;;16.80;;
58661;SDS011;44432;49.786;22.760;2022-11-23T13:50:56;34.70;;;20.30;;
58661;SDS011;44432;49.786;22.760;2022-11-23T13:53:29;30.30;;;18.00;;
58661;SDS011;44432;49.786;22.760;2022-11-23T13:56:16;30.40;;;21.30;;
58661;SDS011;44432;49.786;22.760;2022-11-23T13:58:57;31.30;;;20.90;;
58661;SDS011;44432;49.786;22.760;2022-11-23T14:10:39;30.40;;;20.40;;
58661;SDS011;44432;49.786;22.760;2022-11-23T14:13:11;33.80;;;23.00;;
58661;SDS011;44432;49.786;22.760;2022-11-23T14:15:50;32.10;;;19.80;;
58661;SDS011;44432;49.786;22.760;2022-11-23T14:18:36;31.90;;;20.10;;
58661;SDS011;44432;49.786;22.760;2022-11-23T14:21:20;35.20;;;23.10;;
58661;SDS011;44432;49.786;22.760;2022-11-23T14:27:14;45.30;;;26.90;;
58661;SDS011;44432;49.786;22.760;2022-11-23T14:30:02;47.50;;;28.70;;
58661;SDS011;44432;49.786;22.760;2022-11-23T14:32:47;38.20;;;24.80;;
58661;SDS011;44432;49.786;22.760;2022-11-23T14:35:29;39.50;;;23.70;;
58661;SDS011;44432;49.786;22.760;2022-11-23T14:38:11;40.20;;;26.00;;
58661;SDS011;44432;49.786;22.760;2022-11-23T14:41:01;36.90;;;23.40;;
58661;SDS011;44432;49.786;22.760;2022-11-23T14:43:35;34.10;;;22.30;;
58661;SDS011;44432;49.786;22.760;2022-11-23T14:46:14;36.70;;;24.60;;
58661;SDS011;44432;49.786;22.760;2022-11-23T14:48:47;34.30;;;22.30;;
58661;SDS011;44432;49.786;22.760;2022-11-23T14:51:19;35.00;;;25.00;;
58661;SDS011;44432;49.786;22.760;2022-11-23T14:53:54;38.20;;;23.60;;
58661;SDS011;44432;49.786;22.760;2022-11-23T14:56:30;34.40;;;22.80;;
58661;SDS011;44432;49.786;22.760;2022-11-23T14:59:04;35.70;;;22.60;;
58661;SDS011;44432;49.786;22.760;2022-11-23T15:01:38;39.70;;;26.20;;
58661;SDS011;44432;49.786;22.760;2022-11-23T15:04:20;44.40;;;26.40;;
58661;SDS011;44432;49.786;22.760;2022-11-23T15:06:53;38.10;;;22.70;;
58661;SDS011;44432;49.786;22.760;2022-11-23T15:09:35;36.90;;;23.30;;
58661;SDS011;44432;49.786;22.760;2022-11-23T15:12:21;40.80;;;25.20;;
58661;SDS011;44432;49.786;22.760;2022-11-23T15:14:54;37.10;;;22.90;;
58661;SDS011;44432;49.786;22.760;2022-11-23T15:17:25;39.30;;;24.80;;
58661;SDS011;44432;49.786;22.760;2022-11-23T15:19:57;36.80;;;23.20;;
58661;SDS011;44432;49.786;22.760;2022-11-23T15:22:28;34.90;;;22.40;;
58661;SDS011;44432;49.786;22.760;2022-11-23T15:25:06;44.30;;;28.40;;